sensor_id;sensor_type;location;lat;lon;timestamp;pressure;altitude;pressure_sealevel;temperature;humidity
5053;BME280;2545;50.892;5.740;2023-04-28T00:00:10;56065.03;;;-142.21;65.50
5053;BME280;2545;50.892;5.740;2023-04-28T00:02:36;56104.25;;;-142.21;66.57
5053;BME280;2545;50.892;5.740;2023-04-28T00:05:01;56076.78;;;-142.21;66.39
5053;BME280;2545;50.892;5.740;2023-04-28T00:07:26;56074.84;;;-142.21;67.17
5053;BME280;2545;50.892;5.740;2023-04-28T00:09:52;56119.94;;;-142.21;66.14
5053;BME280;2545;50.892;5.740;2023-04-28T00:12:17;56116.00;;;-142.21;65.79
5053;BME280;2545;50.892;5.740;2023-04-28T00:14:42;56100.31;;;-142.21;66.25
5053;BME280;2545;50.892;5.740;2023-04-28T00:17:08;56100.31;;;-142.21;67.01
5053;BME280;2545;50.892;5.740;2023-04-28T00:19:34;56114.06;;;-142.21;67.74
5053;BME280;2545;50.892;5.740;2023-04-28T00:22:00;56080.72;;;-142.21;67.61
5053;BME280;2545;50.892;5.740;2023-04-28T00:24:25;56086.59;;;-142.21;68.42
5053;BME280;2545;50.892;5.740;2023-04-28T00:26:51;56110.13;;;-142.21;68.47
5053;BME280;2545;50.892;5.740;2023-04-28T00:29:16;56121.91;;;-142.21;68.56
5053;BME280;2545;50.892;5.740;2023-04-28T00:31:42;56110.13;;;-142.21;67.36
5053;BME280;2545;50.892;5.740;2023-04-28T00:34:08;56139.53;;;-142.21;67.55
5053;BME280;2545;50.892;5.740;2023-04-28T00:36:38;56084.63;;;-142.21;68.67
5053;BME280;2545;50.892;5.740;2023-04-28T00:39:03;56121.91;;;-142.21;69.41
5053;BME280;2545;50.892;5.740;2023-04-28T00:41:28;56123.84;;;-142.21;70.13
5053;BME280;2545;50.892;5.740;2023-04-28T00:43:54;56106.22;;;-142.21;70.02
5053;BME280;2545;50.892;5.740;2023-04-28T00:46:23;56108.16;;;-142.21;70.70
5053;BME280;2545;50.892;5.740;2023-04-28T00:48:49;56088.56;;;-142.21;71.18
5053;BME280;2545;50.892;5.740;2023-04-28T00:51:15;56125.81;;;-142.21;73.26
5053;BME280;2545;50.892;5.740;2023-04-28T00:53:41;56068.94;;;-142.21;74.09
5053;BME280;2545;50.892;5.740;2023-04-28T00:56:07;56082.69;;;-142.21;75.12
5053;BME280;2545;50.892;5.740;2023-04-28T00:58:33;56112.09;;;-142.21;75.67
5053;BME280;2545;50.892;5.740;2023-04-28T01:01:02;56098.38;;;-142.21;76.52
5053;BME280;2545;50.892;5.740;2023-04-28T01:03:28;56123.84;;;-142.21;76.96
5053;BME280;2545;50.892;5.740;2023-04-28T01:05:53;56094.44;;;-142.21;78.28
5053;BME280;2545;50.892;5.740;2023-04-28T01:08:23;56110.13;;;-142.21;79.34
5053;BME280;2545;50.892;5.740;2023-04-28T01:10:48;56106.22;;;-142.21;80.12
5053;BME280;2545;50.892;5.740;2023-04-28T01:13:13;56094.44;;;-142.21;84.30
5053;BME280;2545;50.892;5.740;2023-04-28T01:15:39;56092.47;;;-142.21;84.73
5053;BME280;2545;50.892;5.740;2023-04-28T01:18:04;56161.13;;;-142.21;85.51
5053;BME280;2545;50.892;5.740;2023-04-28T01:20:30;56143.47;;;-142.21;85.91
5053;BME280;2545;50.892;5.740;2023-04-28T01:22:55;56096.41;;;-142.21;85.57
5053;BME280;2545;50.892;5.740;2023-04-28T01:25:20;56112.09;;;-142.21;85.56
5053;BME280;2545;50.892;5.740;2023-04-28T01:27:46;56114.06;;;-142.21;84.89
5053;BME280;2545;50.892;5.740;2023-04-28T01:30:11;56125.81;;;-142.21;84.34
5053;BME280;2545;50.892;5.740;2023-04-28T01:32:36;56133.66;;;-142.21;84.94
5053;BME280;2545;50.892;5.740;2023-04-28T01:35:02;56088.56;;;-142.21;84.66
5053;BME280;2545;50.892;5.740;2023-04-28T01:37:27;56108.16;;;-142.21;88.49
5053;BME280;2545;50.892;5.740;2023-04-28T01:39:52;56117.97;;;-142.21;91.12
5053;BME280;2545;50.892;5.740;2023-04-28T01:42:18;56114.06;;;-142.21;94.25
5053;BME280;2545;50.892;5.740;2023-04-28T01:44:44;56096.41;;;-142.21;96.80
5053;BME280;2545;50.892;5.740;2023-04-28T01:47:09;56135.63;;;-142.21;98.73
5053;BME280;2545;50.892;5.740;2023-04-28T01:49:35;56127.78;;;-142.21;100.00
5053;BME280;2545;50.892;5.740;2023-04-28T01:52:00;56088.56;;;-142.21;100.00
5053;BME280;2545;50.892;5.740;2023-04-28T01:54:25;56135.63;;;-142.21;99.43
5053;BME280;2545;50.892;5.740;2023-04-28T01:56:51;56161.13;;;-142.21;100.00
5053;BME280;2545;50.892;5.740;2023-04-28T01:59:16;56123.84;;;-142.21;100.00
5053;BME280;2545;50.892;5.740;2023-04-28T02:01:44;56153.28;;;-142.21;100.00
5053;BME280;2545;50.892;5.740;2023-04-28T02:04:09;56114.06;;;-142.21;100.00
5053;BME280;2545;50.892;5.740;2023-04-28T02:06:34;56121.91;;;-142.21;100.00
5053;BME280;2545;50.892;5.740;2023-04-28T02:09:00;56112.09;;;-142.21;97.78
5053;BME280;2545;50.892;5.740;2023-04-28T02:11:25;56151.31;;;-142.21;96.33
5053;BME280;2545;50.892;5.740;2023-04-28T02:13:50;56116.00;;;-142.21;98.21
5053;BME280;2545;50.892;5.740;2023-04-28T02:16:16;56155.22;;;-142.21;98.56
5053;BME280;2545;50.892;5.740;2023-04-28T02:18:41;56123.84;;;-142.21;98.68
5053;BME280;2545;50.892;5.740;2023-04-28T02:21:11;56145.44;;;-142.21;98.48
5053;BME280;2545;50.892;5.740;2023-04-28T02:23:37;56090.53;;;-142.21;98.50
5053;BME280;2545;50.892;5.740;2023-04-28T02:26:02;56137.59;;;-142.21;98.84
5053;BME280;2545;50.892;5.740;2023-04-28T02:28:28;56163.06;;;-142.21;100.00
5053;BME280;2545;50.892;5.740;2023-04-28T02:31:05;56108.16;;;-142.21;100.00
5053;BME280;2545;50.892;5.740;2023-04-28T02:33:31;56147.38;;;-142.21;100.00
5053;BME280;2545;50.892;5.740;2023-04-28T02:35:58;56104.25;;;-142.21;100.00
5053;BME280;2545;50.892;5.740;2023-04-28T02:38:24;56117.97;;;-142.21;100.00
5053;BME280;2545;50.892;5.740;2023-04-28T02:40:56;56119.94;;;-142.21;100.00
5053;BME280;2545;50.892;5.740;2023-04-28T02:43:23;56117.97;;;-142.21;100.00
5053;BME280;2545;50.892;5.740;2023-04-28T02:45:48;56129.75;;;-142.21;100.00
5053;BME280;2545;50.892;5.740;2023-04-28T02:48:13;56139.53;;;-142.21;100.00
5053;BME280;2545;50.892;5.740;2023-04-28T02:50:39;56123.84;;;-142.21;100.00
5053;BME280;2545;50.892;5.740;2023-04-28T02:53:04;56159.16;;;-142.21;100.00
5053;BME280;2545;50.892;5.740;2023-04-28T02:55:30;56112.09;;;-142.21;100.00
5053;BME280;2545;50.892;5.740;2023-04-28T02:57:56;56119.94;;;-142.21;100.00
5053;BME280;2545;50.892;5.740;2023-04-28T03:00:21;56096.41;;;-142.21;100.00
5053;BME280;2545;50.892;5.740;2023-04-28T03:02:46;56131.69;;;-142.21;100.00
5053;BME280;2545;50.892;5.740;2023-04-28T03:05:12;56102.28;;;-142.21;100.00
5053;BME280;2545;50.892;5.740;2023-04-28T03:07:37;56094.44;;;-142.21;100.00
5053;BME280;2545;50.892;5.740;2023-04-28T03:10:03;56143.47;;;-142.21;100.00
5053;BME280;2545;50.892;5.740;2023-04-28T03:12:28;56174.84;;;-142.21;100.00
5053;BME280;2545;50.892;5.740;2023-04-28T03:14:53;56170.91;;;-142.21;100.00
5053;BME280;2545;50.892;5.740;2023-04-28T03:17:19;56084.63;;;-142.21;100.00
5053;BME280;2545;50.892;5.740;2023-04-28T03:19:44;56119.94;;;-142.21;100.00
5053;BME280;2545;50.892;5.740;2023-04-28T03:22:09;56092.47;;;-142.21;100.00
5053;BME280;2545;50.892;5.740;2023-04-28T03:24:35;56133.66;;;-142.21;100.00
5053;BME280;2545;50.892;5.740;2023-04-28T03:27:00;56149.34;;;-142.21;100.00
5053;BME280;2545;50.892;5.740;2023-04-28T03:29:27;56153.28;;;-142.21;100.00
5053;BME280;2545;50.892;5.740;2023-04-28T03:31:53;56163.06;;;-142.21;100.00
5053;BME280;2545;50.892;5.740;2023-04-28T03:34:18;56131.69;;;-142.21;100.00
5053;BME280;2545;50.892;5.740;2023-04-28T03:36:43;56123.84;;;-142.21;100.00
5053;BME280;2545;50.892;5.740;2023-04-28T03:39:09;56106.22;;;-142.21;100.00
5053;BME280;2545;50.892;5.740;2023-04-28T03:41:34;56172.88;;;-142.21;100.00
5053;BME280;2545;50.892;5.740;2023-04-28T03:43:59;56168.97;;;-142.21;100.00
5053;BME280;2545;50.892;5.740;2023-04-28T03:46:25;56092.47;;;-142.21;100.00
5053;BME280;2545;50.892;5.740;2023-04-28T03:48:50;56133.66;;;-142.21;100.00
5053;BME280;2545;50.892;5.740;2023-04-28T03:51:15;56182.69;;;-142.21;100.00
5053;BME280;2545;50.892;5.740;2023-04-28T03:53:41;56114.06;;;-142.21;100.00
5053;BME280;2545;50.892;5.740;2023-04-28T03:56:06;56112.09;;;-142.21;100.00
5053;BME280;2545;50.892;5.740;2023-04-28T03:58:31;56161.13;;;-142.21;100.00
5053;BME280;2545;50.892;5.740;2023-04-28T04:00:57;56116.00;;;-142.21;100.00
5053;BME280;2545;50.892;5.740;2023-04-28T04:03:24;56127.78;;;-142.21;100.00
5053;BME280;2545;50.892;5.740;2023-04-28T04:05:51;56127.78;;;-142.21;100.00
5053;BME280;2545;50.892;5.740;2023-04-28T04:08:17;56131.69;;;-142.21;100.00
5053;BME280;2545;50.892;5.740;2023-04-28T04:10:43;56117.97;;;-142.21;100.00
5053;BME280;2545;50.892;5.740;2023-04-28T04:13:08;56137.59;;;-142.21;100.00
5053;BME280;2545;50.892;5.740;2023-04-28T04:15:34;56170.91;;;-142.21;100.00
5053;BME280;2545;50.892;5.740;2023-04-28T04:17:59;56127.78;;;-142.21;100.00
5053;BME280;2545;50.892;5.740;2023-04-28T04:20:25;56137.59;;;-142.21;100.00
5053;BME280;2545;50.892;5.740;2023-04-28T04:22:50;56110.13;;;-142.21;100.00
5053;BME280;2545;50.892;5.740;2023-04-28T04:25:15;56149.34;;;-142.21;100.00
5053;BME280;2545;50.892;5.740;2023-04-28T04:27:41;56114.06;;;-142.21;100.00
5053;BME280;2545;50.892;5.740;2023-04-28T04:30:06;56167.00;;;-142.21;100.00
5053;BME280;2545;50.892;5.740;2023-04-28T04:32:32;56163.06;;;-142.21;100.00
5053;BME280;2545;50.892;5.740;2023-04-28T04:34:57;56143.47;;;-142.21;100.00
5053;BME280;2545;50.892;5.740;2023-04-28T04:37:23;56135.63;;;-142.21;100.00
5053;BME280;2545;50.892;5.740;2023-04-28T04:39:48;56145.44;;;-142.21;100.00
5053;BME280;2545;50.892;5.740;2023-04-28T04:42:13;56163.06;;;-142.21;100.00
5053;BME280;2545;50.892;5.740;2023-04-28T04:44:39;56149.34;;;-142.21;100.00
5053;BME280;2545;50.892;5.740;2023-04-28T04:47:04;56172.88;;;-142.21;100.00
5053;BME280;2545;50.892;5.740;2023-04-28T04:49:30;56153.28;;;-142.21;100.00
5053;BME280;2545;50.892;5.740;2023-04-28T04:51:55;56135.63;;;-142.21;100.00
5053;BME280;2545;50.892;5.740;2023-04-28T04:54:21;56168.97;;;-142.21;100.00
5053;BME280;2545;50.892;5.740;2023-04-28T04:56:46;56155.22;;;-142.21;100.00
5053;BME280;2545;50.892;5.740;2023-04-28T04:59:12;56141.50;;;-142.21;100.00
5053;BME280;2545;50.892;5.740;2023-04-28T05:01:37;56135.63;;;-142.21;100.00
5053;BME280;2545;50.892;5.740;2023-04-28T05:04:03;56092.47;;;-142.21;100.00
5053;BME280;2545;50.892;5.740;2023-04-28T05:06:28;56135.63;;;-142.21;100.00
5053;BME280;2545;50.892;5.740;2023-04-28T05:08:53;56112.09;;;-142.21;100.00
5053;BME280;2545;50.892;5.740;2023-04-28T05:11:20;56108.16;;;-142.21;100.00
5053;BME280;2545;50.892;5.740;2023-04-28T05:13:46;56127.78;;;-142.21;100.00
5053;BME280;2545;50.892;5.740;2023-04-28T05:16:11;56167.00;;;-142.21;100.00
5053;BME280;2545;50.892;5.740;2023-04-28T05:18:37;56167.00;;;-142.21;100.00
5053;BME280;2545;50.892;5.740;2023-04-28T05:21:02;56119.94;;;-142.21;100.00
5053;BME280;2545;50.892;5.740;2023-04-28T05:23:27;56139.53;;;-142.21;100.00
5053;BME280;2545;50.892;5.740;2023-04-28T05:25:53;56153.28;;;-142.21;100.00
5053;BME280;2545;50.892;5.740;2023-04-28T05:28:19;56139.53;;;-142.21;100.00
5053;BME280;2545;50.892;5.740;2023-04-28T05:30:46;56125.81;;;-142.21;100.00
5053;BME280;2545;50.892;5.740;2023-04-28T05:33:11;56161.13;;;-142.21;100.00
5053;BME280;2545;50.892;5.740;2023-04-28T05:35:36;56123.84;;;-142.21;100.00
5053;BME280;2545;50.892;5.740;2023-04-28T05:38:02;56147.38;;;-142.21;100.00
5053;BME280;2545;50.892;5.740;2023-04-28T05:40:27;56165.03;;;-142.21;100.00
5053;BME280;2545;50.892;5.740;2023-04-28T05:42:53;56159.16;;;-142.21;100.00
5053;BME280;2545;50.892;5.740;2023-04-28T05:45:18;56159.16;;;-142.21;100.00
5053;BME280;2545;50.892;5.740;2023-04-28T05:47:43;56139.53;;;-142.21;100.00
5053;BME280;2545;50.892;5.740;2023-04-28T05:50:09;56151.31;;;-142.21;100.00
5053;BME280;2545;50.892;5.740;2023-04-28T05:52:35;56153.28;;;-142.21;100.00
5053;BME280;2545;50.892;5.740;2023-04-28T05:55:00;56141.50;;;-142.21;100.00
5053;BME280;2545;50.892;5.740;2023-04-28T05:57:25;56172.88;;;-142.21;100.00
5053;BME280;2545;50.892;5.740;2023-04-28T05:59:50;56116.00;;;-142.21;100.00
5053;BME280;2545;50.892;5.740;2023-04-28T06:02:16;56172.88;;;-142.21;100.00
5053;BME280;2545;50.892;5.740;2023-04-28T06:04:41;56117.97;;;-142.21;100.00
5053;BME280;2545;50.892;5.740;2023-04-28T06:07:08;56116.00;;;-142.21;100.00
5053;BME280;2545;50.892;5.740;2023-04-28T06:09:35;56129.75;;;-142.21;100.00
5053;BME280;2545;50.892;5.740;2023-04-28T06:12:00;56108.16;;;-142.21;100.00
5053;BME280;2545;50.892;5.740;2023-04-28T06:14:27;56125.81;;;-142.21;100.00
5053;BME280;2545;50.892;5.740;2023-04-28T06:16:53;56137.59;;;-142.21;100.00
5053;BME280;2545;50.892;5.740;2023-04-28T06:19:18;56159.16;;;-142.21;100.00
5053;BME280;2545;50.892;5.740;2023-04-28T06:21:44;56129.75;;;-142.21;100.00
5053;BME280;2545;50.892;5.740;2023-04-28T06:24:10;56159.16;;;-142.21;100.00
5053;BME280;2545;50.892;5.740;2023-04-28T06:26:35;56157.19;;;-142.21;100.00
5053;BME280;2545;50.892;5.740;2023-04-28T06:29:00;56119.94;;;-142.21;100.00
5053;BME280;2545;50.892;5.740;2023-04-28T06:31:25;56153.28;;;-142.21;100.00
5053;BME280;2545;50.892;5.740;2023-04-28T06:33:51;56110.13;;;-142.21;100.00
5053;BME280;2545;50.892;5.740;2023-04-28T06:36:16;56119.94;;;-142.21;100.00
5053;BME280;2545;50.892;5.740;2023-04-28T06:38:42;56129.75;;;-142.21;100.00
5053;BME280;2545;50.892;5.740;2023-04-28T06:41:08;56135.63;;;-142.21;100.00
5053;BME280;2545;50.892;5.740;2023-04-28T06:43:34;56141.50;;;-142.21;100.00
5053;BME280;2545;50.892;5.740;2023-04-28T06:45:59;56165.03;;;-142.21;100.00
5053;BME280;2545;50.892;5.740;2023-04-28T06:48:25;56125.81;;;-142.21;100.00
5053;BME280;2545;50.892;5.740;2023-04-28T06:50:51;56123.84;;;-142.21;100.00
5053;BME280;2545;50.892;5.740;2023-04-28T06:53:16;56143.47;;;-142.21;100.00
5053;BME280;2545;50.892;5.740;2023-04-28T06:55:41;56129.75;;;-142.21;100.00
5053;BME280;2545;50.892;5.740;2023-04-28T06:58:07;56090.53;;;-142.21;100.00
5053;BME280;2545;50.892;5.740;2023-04-28T07:00:33;56137.59;;;-142.21;100.00
5053;BME280;2545;50.892;5.740;2023-04-28T07:02:58;56123.84;;;-142.21;100.00
5053;BME280;2545;50.892;5.740;2023-04-28T07:05:23;56129.75;;;-142.21;100.00
5053;BME280;2545;50.892;5.740;2023-04-28T07:07:49;56127.78;;;-142.21;100.00
5053;BME280;2545;50.892;5.740;2023-04-28T07:10:14;56137.59;;;-142.21;100.00
5053;BME280;2545;50.892;5.740;2023-04-28T07:12:40;56155.22;;;-142.21;100.00
5053;BME280;2545;50.892;5.740;2023-04-28T07:15:06;56151.31;;;-142.21;100.00
5053;BME280;2545;50.892;5.740;2023-04-28T07:17:31;56129.75;;;-142.21;100.00
5053;BME280;2545;50.892;5.740;2023-04-28T07:19:57;56096.41;;;-142.21;100.00
5053;BME280;2545;50.892;5.740;2023-04-28T07:22:22;56117.97;;;-142.21;100.00
5053;BME280;2545;50.892;5.740;2023-04-28T07:24:48;56116.00;;;-142.21;100.00
5053;BME280;2545;50.892;5.740;2023-04-28T07:27:13;56127.78;;;-142.21;100.00
5053;BME280;2545;50.892;5.740;2023-04-28T07:29:39;56147.38;;;-142.21;100.00
5053;BME280;2545;50.892;5.740;2023-04-28T07:32:04;56125.81;;;-142.21;100.00
5053;BME280;2545;50.892;5.740;2023-04-28T07:34:32;56104.25;;;-142.21;100.00
5053;BME280;2545;50.892;5.740;2023-04-28T07:36:57;56119.94;;;-142.21;100.00
5053;BME280;2545;50.892;5.740;2023-04-28T07:39:23;56135.63;;;-142.21;100.00
5053;BME280;2545;50.892;5.740;2023-04-28T07:41:49;56149.34;;;-142.21;100.00
5053;BME280;2545;50.892;5.740;2023-04-28T07:44:14;56119.94;;;-142.21;100.00
5053;BME280;2545;50.892;5.740;2023-04-28T07:46:40;56137.59;;;-142.21;100.00
5053;BME280;2545;50.892;5.740;2023-04-28T07:49:05;56135.63;;;-142.21;100.00
5053;BME280;2545;50.892;5.740;2023-04-28T07:51:32;56119.94;;;-142.21;100.00
5053;BME280;2545;50.892;5.740;2023-04-28T07:53:57;56157.19;;;-142.21;100.00
5053;BME280;2545;50.892;5.740;2023-04-28T07:56:23;56131.69;;;-142.21;100.00
5053;BME280;2545;50.892;5.740;2023-04-28T07:58:50;56178.75;;;-142.21;100.00
5053;BME280;2545;50.892;5.740;2023-04-28T08:01:15;56127.78;;;-142.21;100.00
5053;BME280;2545;50.892;5.740;2023-04-28T08:03:41;56127.78;;;-142.21;100.00
5053;BME280;2545;50.892;5.740;2023-04-28T08:06:07;56163.06;;;-142.21;100.00
5053;BME280;2545;50.892;5.740;2023-04-28T08:08:32;56157.19;;;-142.21;100.00
5053;BME280;2545;50.892;5.740;2023-04-28T08:10:57;56141.50;;;-142.21;100.00
5053;BME280;2545;50.892;5.740;2023-04-28T08:13:23;56119.94;;;-142.21;100.00
5053;BME280;2545;50.892;5.740;2023-04-28T08:15:48;56129.75;;;-142.21;100.00
5053;BME280;2545;50.892;5.740;2023-04-28T08:18:14;56117.97;;;-142.21;100.00
5053;BME280;2545;50.892;5.740;2023-04-28T08:20:40;56214.06;;;-142.21;100.00
5053;BME280;2545;50.892;5.740;2023-04-28T08:23:06;56165.03;;;-142.21;100.00
5053;BME280;2545;50.892;5.740;2023-04-28T08:25:31;56172.88;;;-142.21;100.00
5053;BME280;2545;50.892;5.740;2023-04-28T08:27:56;56161.13;;;-142.21;100.00
5053;BME280;2545;50.892;5.740;2023-04-28T08:30:23;56165.03;;;-142.21;100.00
5053;BME280;2545;50.892;5.740;2023-04-28T08:32:48;56153.28;;;-142.21;100.00
5053;BME280;2545;50.892;5.740;2023-04-28T08:35:13;56184.66;;;-142.21;100.00
5053;BME280;2545;50.892;5.740;2023-04-28T08:37:40;56129.75;;;-142.21;100.00
5053;BME280;2545;50.892;5.740;2023-04-28T08:40:06;56112.09;;;-142.21;100.00
5053;BME280;2545;50.892;5.740;2023-04-28T08:42:34;56155.22;;;-142.21;100.00
5053;BME280;2545;50.892;5.740;2023-04-28T08:45:01;56147.38;;;-142.21;100.00
5053;BME280;2545;50.892;5.740;2023-04-28T08:47:35;56161.13;;;-142.21;100.00
5053;BME280;2545;50.892;5.740;2023-04-28T08:50:02;56139.53;;;-142.21;100.00
5053;BME280;2545;50.892;5.740;2023-04-28T08:52:29;56133.66;;;-142.21;100.00
5053;BME280;2545;50.892;5.740;2023-04-28T08:54:57;56121.91;;;-142.21;100.00
5053;BME280;2545;50.892;5.740;2023-04-28T08:57:25;56084.63;;;-142.21;100.00
5053;BME280;2545;50.892;5.740;2023-04-28T08:59:52;56149.34;;;-142.21;100.00
5053;BME280;2545;50.892;5.740;2023-04-28T09:02:18;56127.78;;;-142.21;100.00
5053;BME280;2545;50.892;5.740;2023-04-28T09:04:45;56167.00;;;-142.21;100.00
5053;BME280;2545;50.892;5.740;2023-04-28T09:07:11;56165.03;;;-142.21;100.00
5053;BME280;2545;50.892;5.740;2023-04-28T09:09:37;56125.81;;;-142.21;100.00
5053;BME280;2545;50.892;5.740;2023-04-28T09:12:02;56102.28;;;-142.21;100.00
5053;BME280;2545;50.892;5.740;2023-04-28T09:14:30;56119.94;;;-142.21;100.00
5053;BME280;2545;50.892;5.740;2023-04-28T09:16:57;56133.66;;;-142.21;100.00
5053;BME280;2545;50.892;5.740;2023-04-28T09:19:23;56116.00;;;-142.21;100.00
5053;BME280;2545;50.892;5.740;2023-04-28T09:21:52;56135.63;;;-142.21;100.00
5053;BME280;2545;50.892;5.740;2023-04-28T09:24:33;56151.31;;;-142.21;100.00
5053;BME280;2545;50.892;5.740;2023-04-28T09:27:01;56127.78;;;-142.21;100.00
5053;BME280;2545;50.892;5.740;2023-04-28T09:29:27;56165.03;;;-142.21;100.00
5053;BME280;2545;50.892;5.740;2023-04-28T09:31:53;56125.81;;;-142.21;100.00
5053;BME280;2545;50.892;5.740;2023-04-28T09:34:19;56098.38;;;-142.21;100.00
5053;BME280;2545;50.892;5.740;2023-04-28T09:36:45;56116.00;;;-142.21;100.00
5053;BME280;2545;50.892;5.740;2023-04-28T09:39:11;56082.69;;;-142.21;100.00
5053;BME280;2545;50.892;5.740;2023-04-28T09:41:41;56114.06;;;-142.21;100.00
5053;BME280;2545;50.892;5.740;2023-04-28T09:44:14;56125.81;;;-142.21;100.00
5053;BME280;2545;50.892;5.740;2023-04-28T09:46:41;56096.41;;;-142.21;100.00
5053;BME280;2545;50.892;5.740;2023-04-28T09:49:06;56112.09;;;-142.21;100.00
5053;BME280;2545;50.892;5.740;2023-04-28T09:51:33;56112.09;;;-142.21;100.00
5053;BME280;2545;50.892;5.740;2023-04-28T09:54:00;56108.16;;;-142.21;100.00
5053;BME280;2545;50.892;5.740;2023-04-28T09:56:27;56116.00;;;-142.21;100.00
5053;BME280;2545;50.892;5.740;2023-04-28T09:58:57;56133.66;;;-142.21;100.00
5053;BME280;2545;50.892;5.740;2023-04-28T10:01:36;56135.63;;;-142.21;100.00
5053;BME280;2545;50.892;5.740;2023-04-28T10:04:03;56100.31;;;-142.21;100.00
5053;BME280;2545;50.892;5.740;2023-04-28T10:06:29;56108.16;;;-142.21;100.00
5053;BME280;2545;50.892;5.740;2023-04-28T10:08:55;56086.59;;;-142.21;100.00
5053;BME280;2545;50.892;5.740;2023-04-28T10:11:22;56139.53;;;-142.21;95.95
5053;BME280;2545;50.892;5.740;2023-04-28T10:13:50;56074.84;;;-142.21;95.99
5053;BME280;2545;50.892;5.740;2023-04-28T10:16:15;56119.94;;;-142.21;93.71
5053;BME280;2545;50.892;5.740;2023-04-28T10:18:41;56055.22;;;-142.21;89.76
5053;BME280;2545;50.892;5.740;2023-04-28T10:21:07;56082.69;;;-142.21;85.54
5053;BME280;2545;50.892;5.740;2023-04-28T10:23:46;56088.56;;;-142.21;82.93
5053;BME280;2545;50.892;5.740;2023-04-28T10:26:18;56096.41;;;-142.21;79.21
5053;BME280;2545;50.892;5.740;2023-04-28T10:28:47;56068.94;;;-142.21;78.22
5053;BME280;2545;50.892;5.740;2023-04-28T10:31:16;56106.22;;;-142.21;82.06
5053;BME280;2545;50.892;5.740;2023-04-28T10:33:42;56116.00;;;-142.21;80.48
5053;BME280;2545;50.892;5.740;2023-04-28T10:36:09;56068.94;;;-142.21;77.60
5053;BME280;2545;50.892;5.740;2023-04-28T10:38:35;56090.53;;;-142.21;75.21
5053;BME280;2545;50.892;5.740;2023-04-28T10:41:32;56053.25;;;-142.21;71.13
5053;BME280;2545;50.892;5.740;2023-04-28T10:43:58;56098.38;;;-142.21;70.78
5053;BME280;2545;50.892;5.740;2023-04-28T10:46:23;56059.16;;;-142.21;74.91
5053;BME280;2545;50.892;5.740;2023-04-28T10:56:21;56078.75;;;-142.21;70.32
5053;BME280;2545;50.892;5.740;2023-04-28T10:58:49;56078.75;;;-142.21;68.72
5053;BME280;2545;50.892;5.740;2023-04-28T11:06:31;56035.63;;;-142.21;63.42
5053;BME280;2545;50.892;5.740;2023-04-28T11:09:01;56061.09;;;-142.21;66.40
5053;BME280;2545;50.892;5.740;2023-04-28T11:11:30;56037.56;;;-142.21;67.76
5053;BME280;2545;50.892;5.740;2023-04-28T11:16:57;56043.47;;;-142.21;68.29
5053;BME280;2545;50.892;5.740;2023-04-28T11:19:28;56068.94;;;-142.21;70.32
5053;BME280;2545;50.892;5.740;2023-04-28T11:21:55;56063.06;;;-142.21;71.44
5053;BME280;2545;50.892;5.740;2023-04-28T11:24:22;56065.03;;;-142.21;72.98
5053;BME280;2545;50.892;5.740;2023-04-28T11:26:50;56088.56;;;-142.21;74.59
5053;BME280;2545;50.892;5.740;2023-04-28T11:29:15;56070.91;;;-142.21;69.68
5053;BME280;2545;50.892;5.740;2023-04-28T11:31:48;56061.09;;;-142.21;65.71
5053;BME280;2545;50.892;5.740;2023-04-28T11:34:18;56019.94;;;-142.21;61.48
5053;BME280;2545;50.892;5.740;2023-04-28T11:36:44;55996.41;;;-142.21;60.06
5053;BME280;2545;50.892;5.740;2023-04-28T11:39:11;55998.38;;;-142.21;57.57
5053;BME280;2545;50.892;5.740;2023-04-28T11:41:40;56031.69;;;-142.21;51.22
5053;BME280;2545;50.892;5.740;2023-04-28T11:44:16;55965.03;;;-142.21;47.54
5053;BME280;2545;50.892;5.740;2023-04-28T11:46:48;55978.75;;;-142.21;46.73
5053;BME280;2545;50.892;5.740;2023-04-28T11:49:21;56014.06;;;-142.21;45.60
5053;BME280;2545;50.892;5.740;2023-04-28T11:51:49;55998.38;;;-142.21;46.28
5053;BME280;2545;50.892;5.740;2023-04-28T11:54:23;55961.09;;;-142.21;44.28
5053;BME280;2545;50.892;5.740;2023-04-28T11:56:50;55965.03;;;-142.21;44.73
5053;BME280;2545;50.892;5.740;2023-04-28T11:59:16;55957.19;;;-142.21;46.40
5053;BME280;2545;50.892;5.740;2023-04-28T12:01:52;56037.56;;;-142.21;50.64
5053;BME280;2545;50.892;5.740;2023-04-28T12:04:35;56019.94;;;-142.21;52.78
5053;BME280;2545;50.892;5.740;2023-04-28T12:09:38;56033.66;;;-142.21;52.42
5053;BME280;2545;50.892;5.740;2023-04-28T12:12:06;56051.31;;;-142.21;53.09
5053;BME280;2545;50.892;5.740;2023-04-28T12:14:52;55994.44;;;-142.21;50.98
5053;BME280;2545;50.892;5.740;2023-04-28T12:17:34;56004.25;;;-142.21;46.79
5053;BME280;2545;50.892;5.740;2023-04-28T12:20:01;55935.63;;;-142.21;45.31
5053;BME280;2545;50.892;5.740;2023-04-28T12:22:27;56019.94;;;-142.21;44.48
5053;BME280;2545;50.892;5.740;2023-04-28T12:25:09;55968.94;;;-142.21;45.24
5053;BME280;2545;50.892;5.740;2023-04-28T12:27:36;55957.19;;;-142.21;44.39
5053;BME280;2545;50.892;5.740;2023-04-28T12:32:46;55937.56;;;-142.21;42.20
5053;BME280;2545;50.892;5.740;2023-04-28T12:35:12;55939.53;;;-142.21;40.70
5053;BME280;2545;50.892;5.740;2023-04-28T12:37:37;55990.53;;;-142.21;40.90
5053;BME280;2545;50.892;5.740;2023-04-28T12:40:04;55988.56;;;-142.21;44.30
5053;BME280;2545;50.892;5.740;2023-04-28T12:42:30;56004.25;;;-142.21;47.71
5053;BME280;2545;50.892;5.740;2023-04-28T12:44:56;55994.44;;;-142.21;50.71
5053;BME280;2545;50.892;5.740;2023-04-28T12:47:21;56012.09;;;-142.21;47.80
5053;BME280;2545;50.892;5.740;2023-04-28T12:49:47;56012.09;;;-142.21;44.56
5053;BME280;2545;50.892;5.740;2023-04-28T12:52:14;55976.78;;;-142.21;41.67
5053;BME280;2545;50.892;5.740;2023-04-28T12:54:40;56002.28;;;-142.21;44.40
5053;BME280;2545;50.892;5.740;2023-04-28T12:57:14;56002.28;;;-142.21;45.33
5053;BME280;2545;50.892;5.740;2023-04-28T12:59:40;55959.16;;;-142.21;44.84
5053;BME280;2545;50.892;5.740;2023-04-28T13:02:06;55967.00;;;-142.21;42.11
5053;BME280;2545;50.892;5.740;2023-04-28T13:04:31;55965.03;;;-142.21;41.44
5053;BME280;2545;50.892;5.740;2023-04-28T13:06:57;56002.28;;;-142.21;44.08
5053;BME280;2545;50.892;5.740;2023-04-28T13:09:24;56008.16;;;-142.21;48.42